• Join FlightAware (Why Join?)
  • Login
  • US Flag 
02:22AM EST


 

Airport Tracker/Info


-or-


 

Live Flight TrackerFlight Track Log ✈ EEA2731 ✈ 25-Apr-2014 ✈ ZUUU / CTU - ZUGY / KWE

Flight Track Log - Related Links

Times and Time Zones

All times are in EDT time to prevent confusion due to time zone crossing. See the EEA2731 flight status page for this flight to view local times or setup timezone preferences in your user account.

Time Position Orientation Groundspeed Altitude Reporting Facility
EDT Latitude Longitude Course Direction KTS MPH feet Rate Location/Type
02:48AM 30.0149 104.3614 147° Southeast  Level Estimated
02:49AM 29.9443 104.4129 148° Southeast  Level Estimated
02:50AM 29.8738 104.4643 148° Southeast  Level Estimated
02:51AM 29.8032 104.5156 148° Southeast  Level Estimated
02:52AM 29.7326 104.5668 148° Southeast  Level Estimated
02:53AM 29.6620 104.6180 148° Southeast  Level Estimated
02:54AM 29.5913 104.6691 148° Southeast  Level Estimated
02:55AM 29.5207 104.7201 148° Southeast  Level Estimated
02:56AM 29.4500 104.7711 148° Southeast  Level Estimated
02:57AM 29.3793 104.8220 148° Southeast  Level Estimated
02:58AM 29.3085 104.8728 148° Southeast  Level Estimated
02:59AM 29.2378 104.9235 148° Southeast  Level Estimated
03:00AM 29.1670 104.9742 148° Southeast  Level Estimated
03:01AM 29.0963 105.0248 148° Southeast  Level Estimated
03:02AM 29.0254 105.0753 148° Southeast  Level Estimated
03:03AM 28.9546 105.1258 148° Southeast  Level Estimated
03:04AM 28.8838 105.1762 148° Southeast  Level Estimated
03:05AM 28.8129 105.2265 148° Southeast  Level Estimated
03:06AM 28.7421 105.2768 148° Southeast  Level Estimated
03:07AM 28.6712 105.3270 148° Southeast  Level Estimated
03:08AM 28.6003 105.3771 148° Southeast  Level Estimated
03:09AM 28.5293 105.4271 148° Southeast  Level Estimated
03:10AM 28.4584 105.4771 148° Southeast  Level Estimated
03:11AM 28.3874 105.5270 148° Southeast  Level Estimated
03:12AM 28.3164 105.5769 148° Southeast  Level Estimated
03:13AM 28.2454 105.6267 148° Southeast  Level Estimated
03:14AM 28.1744 105.6764 148° Southeast  Level Estimated
03:15AM 28.1034 105.7261 148° Southeast  Level Estimated
03:16AM 28.0323 105.7757 148° Southeast  Level Estimated
03:17AM 27.9612 105.8252 148° Southeast  Level Estimated
03:18AM 27.8902 105.8746 148° Southeast  Level Estimated
03:19AM 27.8190 105.9240 148° Southeast  Level Estimated
03:20AM 27.7479 105.9734 148° Southeast  Level Estimated
03:21AM 27.6768 106.0226 148° Southeast  Level Estimated
03:22AM 27.6056 106.0718 149° Southeast  Level Estimated
03:23AM 27.5344 106.1210 149° Southeast  Level Estimated
03:24AM 27.4632 106.1700 149° Southeast  Level Estimated
03:25AM 27.3920 106.2190 149° Southeast  Level Estimated
03:26AM 27.3208 106.2680 149° Southeast  Level Estimated
03:27AM 27.2495 106.3169 149° Southeast  Level Estimated
03:28AM 27.1783 106.3657 149° Southeast  Level Estimated
03:29AM 27.1070 106.4145 149° Southeast  Level Estimated
03:30AM 27.0357 106.4632 149° Southeast  Level Estimated
03:31AM 26.9644 106.5118 149° Southeast  Level Estimated
03:32AM 26.8930 106.5604 149° Southeast  Level Estimated
03:33AM 26.8217 106.6089 149° Southeast  Level Estimated
03:34AM 26.7503 106.6573 149° Southeast  Level Estimated
03:35AM 26.6789 106.7057 149° Southeast  Level Estimated
03:36AM 26.6075 106.7540 149° Southeast  Level Estimated
03:37AM 26.5385 106.8007 149° Southeast  Level Estimated
03:38AM 26.5385 106.8007 North  Level Estimated
03:39AM 26.5385 106.8007 North  Level Estimated
03:40AM 26.5385 106.8007 North  Level Estimated
03:41AM 26.5385 106.8007 North  Level Estimated
03:42AM 26.5385 106.8007 North  Level Estimated
03:43AM 26.5385 106.8007 North  Level Estimated
03:44AM 26.5385 106.8007 North  Level Estimated
03:45AM 26.5385 106.8007 North  Level Estimated
03:46AM 26.5385 106.8007 North  Level Estimated